Time;durP1;ratioP1;P1;durP2;ratioP2;P2;SDS_P1;SDS_P2;PMS_P1;PMS_P2;Temp;Humidity;BMP_temperature;BMP_pressure;BME280_temperature;BME280_humidity;BME280_pressure;Samples;Min_cycle;Max_cycle;Signal;HPM_P1;HPM_P2
2022/10/03 00:00:12;;;;;;;10.80;2.70;;;;;;;10.35;100.00;101449.77;107948;1277;73961;-78
2022/10/03 00:03:16;;;;;;;13.00;2.90;;;;;;;10.34;100.00;101449.89;107831;1277;71270;-80
2022/10/03 00:06:14;;;;;;;14.80;3.00;;;;;;;10.29;100.00;101448.04;107752;1277;72634;-78
2022/10/03 00:09:03;;;;;;;13.90;2.90;;;;;;;10.30;100.00;101450.31;107526;1276;63184;-79
2022/10/03 00:12:12;;;;;;;14.10;3.20;;;;;;;10.29;100.00;101451.25;107418;1277;61701;-81
2022/10/03 00:15:17;;;;;;;14.30;2.60;;;;;;;10.28;100.00;101446.42;107529;1276;73004;-79
2022/10/03 00:18:07;;;;;;;16.50;3.00;;;;;;;10.24;100.00;101456.54;106851;1281;71188;-79
2022/10/03 00:20:45;;;;;;;17.40;2.80;;;;;;;10.22;100.00;101459.52;106837;1281;72838;-80
2022/10/03 00:23:27;;;;;;;11.90;2.40;;;;;;;10.21;100.00;101463.51;107335;1277;62104;-78
2022/10/03 00:26:25;;;;;;;14.80;2.70;;;;;;;10.17;100.00;101467.02;107575;1277;60088;-80
2022/10/03 00:28:58;;;;;;;12.20;2.30;;;;;;;10.19;100.00;101463.69;107488;1276;75084;-80
2022/10/03 00:31:52;;;;;;;14.00;2.60;;;;;;;10.19;100.00;101468.95;107330;1277;71319;-80
2022/10/03 00:34:31;;;;;;;14.60;2.60;;;;;;;10.19;100.00;101472.27;107680;1277;74402;-80
2022/10/03 00:37:23;;;;;;;12.40;2.80;;;;;;;10.22;100.00;101480.55;107484;1277;62294;-80
2022/10/03 00:40:10;;;;;;;15.50;2.90;;;;;;;10.22;100.00;101481.25;107126;1277;61958;-80
2022/10/03 00:43:23;;;;;;;14.50;3.10;;;;;;;10.25;100.00;101485.08;107521;1276;75381;-80
2022/10/03 00:46:28;;;;;;;16.70;3.10;;;;;;;10.25;100.00;101481.52;107662;1277;72421;-80
2022/10/03 00:48:55;;;;;;;14.30;2.60;;;;;;;10.23;100.00;101480.98;107733;1277;71938;-79
2022/10/03 00:51:43;;;;;;;16.10;2.60;;;;;;;10.23;100.00;101481.88;107613;1276;60477;-80
2022/10/03 00:54:40;;;;;;;15.80;2.80;;;;;;;10.20;100.00;101484.64;107226;1276;61476;-79
2022/10/03 00:57:09;;;;;;;13.20;2.60;;;;;;;10.18;100.00;101488.40;106968;1277;75108;-79
2022/10/03 00:59:47;;;;;;;20.30;3.60;;;;;;;10.16;100.00;101485.17;107371;1276;70855;-80
2022/10/03 01:02:19;;;;;;;13.00;2.40;;;;;;;10.13;100.00;101491.50;107652;1276;73160;-79
2022/10/03 01:05:11;;;;;;;12.90;2.60;;;;;;;10.12;100.00;101494.65;107588;1276;63025;-78
2022/10/03 01:08:18;;;;;;;16.10;2.90;;;;;;;10.10;100.00;101494.80;107526;1277;60486;-80
2022/10/03 01:11:06;;;;;;;12.00;2.10;;;;;;;10.10;100.00;101499.89;107621;1276;73978;-81
2022/10/03 01:13:42;;;;;;;14.90;2.60;;;;;;;10.10;100.00;101498.71;107451;1276;72090;-80
2022/10/03 01:16:20;;;;;;;16.40;2.40;;;;;;;10.12;100.00;101501.89;107612;1276;72947;-81
2022/10/03 01:19:07;;;;;;;11.00;2.40;;;;;;;10.12;100.00;101498.13;107346;1276;62173;-81
2022/10/03 01:21:49;;;;;;;13.20;2.70;;;;;;;10.14;100.00;101499.34;107611;1276;61789;-81
2022/10/03 01:24:34;;;;;;;12.40;2.20;;;;;;;10.15;100.00;101500.85;107296;1277;72880;-79
2022/10/03 01:27:05;;;;;;;10.30;2.50;;;;;;;10.16;100.00;101506.58;107572;1276;71694;-78
2022/10/03 01:32:43;;;;;;;11.50;2.30;;;;;;;10.19;100.00;101511.02;107302;1276;62983;-79
2022/10/03 01:35:34;;;;;;;15.60;2.40;;;;;;;10.20;100.00;101510.93;107234;1276;60996;-79
2022/10/03 01:38:40;;;;;;;13.80;2.60;;;;;;;10.24;100.00;101513.80;107384;1277;73929;-80
2022/10/03 01:41:19;;;;;;;15.20;2.50;;;;;;;10.23;100.00;101512.60;107574;1276;71111;-80
2022/10/03 01:43:54;;;;;;;14.80;2.40;;;;;;;10.24;100.00;101513.62;107440;1276;73096;-79
2022/10/03 01:46:26;;;;;;;12.10;2.50;;;;;;;10.23;100.00;101516.05;107509;1276;62215;-79
2022/10/03 01:49:15;;;;;;;15.40;2.60;;;;;;;10.21;100.00;101523.07;107131;1277;60043;-79
2022/10/03 01:51:53;;;;;;;14.10;2.90;;;;;;;10.19;100.00;101532.23;107135;1277;75125;-79
2022/10/03 01:54:34;;;;;;;13.90;2.20;;;;;;;10.22;100.00;101537.63;107486;1276;72377;-79
2022/10/03 01:57:38;;;;;;;13.70;2.80;;;;;;;10.23;100.00;101541.77;107631;1276;74888;-79
2022/10/03 02:00:12;;;;;;;11.80;2.10;;;;;;;10.25;100.00;101542.35;107454;1276;62713;-80
2022/10/03 02:02:54;;;;;;;16.10;2.80;;;;;;;10.25;100.00;101544.77;106900;1277;61779;-76
2022/10/03 02:05:35;;;;;;;10.80;2.40;;;;;;;10.26;100.00;101546.86;107510;1276;74948;-79
2022/10/03 02:08:10;;;;;;;15.80;2.80;;;;;;;10.26;100.00;101550.52;107186;1276;71208;-79
2022/10/03 02:11:01;;;;;;;16.80;2.60;;;;;;;10.27;100.00;101554.01;107435;1277;74005;-81
2022/10/03 02:13:39;;;;;;;12.80;2.50;;;;;;;10.27;100.00;101554.67;107459;1276;62398;-80
2022/10/03 02:16:24;;;;;;;13.70;2.70;;;;;;;10.29;100.00;101556.12;107718;1277;60378;-80
2022/10/03 02:19:04;;;;;;;16.60;2.60;;;;;;;10.31;100.00;101558.42;107613;1276;75787;-80
2022/10/03 02:21:33;;;;;;;17.50;3.00;;;;;;;10.32;100.00;101559.87;107273;1277;71285;-79
2022/10/03 02:24:15;;;;;;;14.50;2.60;;;;;;;10.35;100.00;101561.84;107213;1276;71681;-78
2022/10/03 02:27:00;;;;;;;12.10;2.70;;;;;;;10.37;100.00;101563.95;107390;1276;62118;-80
2022/10/03 02:29:57;;;;;;;17.70;2.90;;;;;;;10.36;100.00;101563.54;107439;1277;60904;-79
2022/10/03 02:32:48;;;;;;;12.60;2.80;;;;;;;10.36;100.00;101567.02;107314;1276;75420;-80
2022/10/03 02:35:42;;;;;;;11.80;2.60;;;;;;;10.36;100.00;101562.67;107521;1276;71180;-80
2022/10/03 02:38:28;;;;;;;16.50;2.60;;;;;;;10.34;100.00;101566.73;107419;1277;72947;-79
2022/10/03 02:41:20;;;;;;;12.60;2.80;;;;;;;10.30;100.00;101562.39;107521;1275;63717;-81
2022/10/03 02:44:25;;;;;;;13.70;2.60;;;;;;;10.28;100.00;101567.87;107338;1276;60598;-80
2022/10/03 02:47:19;;;;;;;11.90;2.20;;;;;;;10.25;100.00;101574.34;107250;1276;73848;-80
2022/10/03 02:50:34;;;;;;;14.20;2.70;;;;;;;10.24;100.00;101575.89;107429;1276;71124;-80
2022/10/03 02:53:24;;;;;;;15.80;2.40;;;;;;;10.24;100.00;101581.68;107095;1277;72703;-80
2022/10/03 02:56:06;;;;;;;16.50;2.40;;;;;;;10.24;100.00;101586.48;107272;1276;62039;-79
2022/10/03 02:58:55;;;;;;;12.80;2.40;;;;;;;10.20;100.00;101586.77;107608;1276;60816;-80
2022/10/03 03:01:48;;;;;;;13.20;2.80;;;;;;;10.19;100.00;101585.48;107048;1276;75414;-80
2022/10/03 03:04:30;;;;;;;9.60;2.60;;;;;;;10.17;100.00;101589.06;107316;1277;70357;-80
2022/10/03 03:07:15;;;;;;;13.50;2.80;;;;;;;10.14;100.00;101588.93;107407;1276;74353;-79
2022/10/03 03:10:03;;;;;;;13.30;2.50;;;;;;;10.11;100.00;101582.76;107370;1277;62366;-80
2022/10/03 03:13:08;;;;;;;12.90;2.60;;;;;;;10.05;100.00;101587.56;107676;1276;60396;-79
2022/10/03 03:16:12;;;;;;;13.90;2.50;;;;;;;9.99;100.00;101585.29;107573;1277;73898;-81
2022/10/03 03:18:52;;;;;;;13.80;2.40;;;;;;;9.94;100.00;101594.98;107751;1276;71386;-82
2022/10/03 03:21:43;;;;;;;13.50;2.30;;;;;;;9.88;100.00;101595.06;107913;1276;74053;-80
2022/10/03 03:24:28;;;;;;;13.40;2.60;;;;;;;9.84;100.00;101596.20;107557;1276;61962;-78
2022/10/03 03:27:14;;;;;;;14.70;2.60;;;;;;;9.81;100.00;101604.52;107577;1276;289952;-78
2022/10/03 03:30:05;;;;;;;10.70;2.50;;;;;;;9.81;100.00;101612.67;107732;1277;73945;-78
2022/10/03 03:32:50;;;;;;;14.30;2.70;;;;;;;9.78;100.00;101607.97;107753;1274;69825;-80
2022/10/03 03:35:39;;;;;;;13.20;2.90;;;;;;;9.80;100.00;101607.30;107734;1276;73474;-80
2022/10/03 03:38:25;;;;;;;12.30;2.70;;;;;;;9.79;100.00;101605.90;107435;1276;62136;-78
2022/10/03 03:41:25;;;;;;;15.40;2.70;;;;;;;9.79;100.00;101604.73;107822;1276;60336;-79
2022/10/03 03:44:05;;;;;;;9.50;2.40;;;;;;;9.81;100.00;101608.80;107437;1276;73856;-78
2022/10/03 03:47:01;;;;;;;13.90;2.70;;;;;;;9.80;100.00;101601.95;107795;1276;71040;-79
2022/10/03 03:49:58;;;;;;;13.90;2.30;;;;;;;9.79;100.00;101605.07;107369;1276;73700;-81
2022/10/03 03:52:52;;;;;;;14.40;2.60;;;;;;;9.78;100.00;101604.09;107463;1276;63060;-79
2022/10/03 03:55:44;;;;;;;13.80;2.60;;;;;;;9.83;100.00;101604.23;107700;1276;59300;-81
2022/10/03 03:58:32;;;;;;;11.60;2.20;;;;;;;9.84;100.00;101604.66;107401;1276;74037;-80
2022/10/03 04:00:58;;;;;;;16.10;2.60;;;;;;;9.89;100.00;101612.23;107371;1277;72132;-78
2022/10/03 04:03:54;;;;;;;11.50;2.30;;;;;;;9.93;100.00;101615.10;107603;1276;73312;-79
2022/10/03 04:06:45;;;;;;;14.70;2.20;;;;;;;9.97;100.00;101618.23;107020;1277;62336;-79
2022/10/03 04:09:38;;;;;;;12.80;2.80;;;;;;;10.01;100.00;101612.31;107720;1277;61431;-79
2022/10/03 04:12:12;;;;;;;11.90;2.60;;;;;;;10.03;100.00;101611.80;107648;1276;74878;-78
2022/10/03 04:15:06;;;;;;;15.40;3.00;;;;;;;10.00;100.00;101617.60;107537;1276;72371;-78
2022/10/03 04:21:05;;;;;;;14.20;2.60;;;;;;;9.97;100.00;101615.91;107114;1274;61777;-79
2022/10/03 04:24:00;;;;;;;14.20;2.60;;;;;;;9.98;100.00;101620.77;107567;1276;60317;-79
2022/10/03 04:27:23;;;;;;;16.30;2.60;;;;;;;9.94;100.00;101626.20;107299;1277;73676;-78
2022/10/03 04:30:02;;;;;;;15.90;2.60;;;;;;;9.91;100.00;101624.05;107012;1278;72515;-79
2022/10/03 04:32:44;;;;;;;13.10;2.80;;;;;;;9.89;100.00;101623.40;107621;1276;72643;-78
2022/10/03 04:35:45;;;;;;;11.10;2.20;;;;;;;9.88;100.00;101619.95;107926;1276;61759;-78
2022/10/03 04:38:38;;;;;;;12.10;2.40;;;;;;;9.89;100.00;101618.83;107307;1276;62321;-78
2022/10/03 04:41:17;;;;;;;11.70;2.50;;;;;;;9.91;100.00;101612.60;107695;1276;72952;-79
2022/10/03 04:44:10;;;;;;;13.90;2.50;;;;;;;9.92;100.00;101612.20;107392;1276;71425;-79
2022/10/03 04:47:14;;;;;;;12.10;2.30;;;;;;;9.91;100.00;101610.54;108042;1276;72758;-80
2022/10/03 04:49:57;;;;;;;13.90;2.80;;;;;;;9.92;100.00;101613.79;107992;1277;61997;-80
2022/10/03 04:52:32;;;;;;;13.90;2.60;;;;;;;9.90;100.00;101617.50;107426;1276;60418;-79
2022/10/03 04:55:22;;;;;;;14.50;2.20;;;;;;;9.88;100.00;101624.39;107816;1277;74091;-79
2022/10/03 04:58:15;;;;;;;14.00;2.30;;;;;;;9.82;100.00;101628.66;107431;1276;71836;-79
2022/10/03 05:00:54;;;;;;;13.00;2.90;;;;;;;9.78;100.00;101629.53;107202;1277;72851;-79
2022/10/03 05:03:46;;;;;;;11.00;1.90;;;;;;;9.75;100.00;101628.09;107335;1276;62381;-79
2022/10/03 05:06:35;;;;;;;15.90;2.70;;;;;;;9.71;100.00;101632.02;107401;1276;60270;-78
2022/10/03 05:09:34;;;;;;;15.50;2.30;;;;;;;9.71;100.00;101633.08;107550;1276;74407;-79
2022/10/03 05:12:31;;;;;;;12.50;2.40;;;;;;;9.67;100.00;101641.78;106991;1277;72682;-79
2022/10/03 05:15:09;;;;;;;12.70;2.40;;;;;;;9.63;100.00;101632.79;107374;1276;73832;-79
2022/10/03 05:18:14;;;;;;;18.90;2.80;;;;;;;9.64;100.00;101635.15;107307;1276;61971;-80
2022/10/03 05:20:46;;;;;;;14.40;2.40;;;;;;;9.62;100.00;101641.21;106750;1282;61576;-79
2022/10/03 05:23:29;;;;;;;9.50;2.10;;;;;;;9.61;100.00;101644.39;107166;1277;74130;-80
2022/10/03 05:26:24;;;;;;;9.20;2.00;;;;;;;9.62;100.00;101641.48;107263;1276;71110;-80
2022/10/03 05:29:14;;;;;;;11.90;2.40;;;;;;;9.65;100.00;101647.21;107285;1276;73414;-80
2022/10/03 05:32:07;;;;;;;12.40;2.50;;;;;;;9.69;100.00;101654.30;107556;1276;62019;-79
2022/10/03 05:35:12;;;;;;;13.00;2.40;;;;;;;9.73;100.00;101660.10;107137;1276;60338;-80
2022/10/03 05:38:14;;;;;;;10.70;3.00;;;;;;;9.73;100.00;101665.68;107369;1276;75388;-79
2022/10/03 05:41:10;;;;;;;17.70;2.60;;;;;;;9.77;100.00;101670.45;106892;1276;72638;-79
2022/10/03 05:43:56;;;;;;;12.80;2.50;;;;;;;9.81;100.00;101669.73;106720;1277;73980;-76
2022/10/03 05:46:38;;;;;;;15.40;2.40;;;;;;;9.82;100.00;101673.34;107385;1276;62064;-78
2022/10/03 05:49:29;;;;;;;15.10;2.70;;;;;;;9.83;100.00;101678.75;107527;1276;60991;-77
2022/10/03 05:52:26;;;;;;;10.50;2.10;;;;;;;9.84;100.00;101680.61;106917;1276;74593;-77
2022/10/03 05:55:19;;;;;;;12.00;2.40;;;;;;;9.87;100.00;101680.50;107692;1276;71865;-77
2022/10/03 05:57:57;;;;;;;13.00;2.30;;;;;;;9.91;100.00;101686.49;107005;1276;74049;-78
2022/10/03 06:00:31;;;;;;;13.20;2.30;;;;;;;9.94;100.00;101686.54;107504;1276;61394;-82
2022/10/03 06:03:26;;;;;;;12.40;2.30;;;;;;;9.96;100.00;101689.68;106992;1276;59611;-79
2022/10/03 06:06:23;;;;;;;9.10;2.10;;;;;;;10.01;100.00;101689.74;107745;1276;75646;-79
2022/10/03 06:09:14;;;;;;;9.80;2.30;;;;;;;10.04;100.00;101694.05;107396;1276;70813;-78
2022/10/03 06:12:03;;;;;;;12.60;2.30;;;;;;;10.07;100.00;101696.29;107904;1276;73773;-78
2022/10/03 06:14:41;;;;;;;11.90;2.00;;;;;;;10.14;100.00;101699.41;107999;1276;63547;-78
2022/10/03 06:17:45;;;;;;;12.60;2.20;;;;;;;10.23;100.00;101697.70;108050;1274;60429;-78
2022/10/03 06:20:11;;;;;;;8.00;2.10;;;;;;;10.35;100.00;101707.35;107853;1276;76729;-78
2022/10/03 06:22:56;;;;;;;13.70;2.40;;;;;;;10.42;100.00;101708.12;107846;1276;59175;-78
2022/10/03 06:26:15;;;;;;;9.50;2.20;;;;;;;10.42;100.00;101715.52;107802;1275;73992;-79
2022/10/03 06:28:50;;;;;;;10.90;2.60;;;;;;;10.43;100.00;101718.41;107464;1276;62318;-78
2022/10/03 06:31:41;;;;;;;11.00;2.30;;;;;;;10.46;100.00;101720.31;107367;1276;61368;-79
2022/10/03 06:34:38;;;;;;;11.10;1.90;;;;;;;10.52;100.00;101719.34;107329;1277;75687;-79
2022/10/03 06:37:41;;;;;;;10.80;2.40;;;;;;;10.54;99.98;101726.05;107182;1276;71241;-77
2022/10/03 06:40:47;;;;;;;10.00;2.20;;;;;;;10.61;99.90;101722.92;107554;1276;73449;-77
2022/10/03 06:43:32;;;;;;;11.20;2.60;;;;;;;10.65;99.52;101720.40;107389;1276;63273;-77
2022/10/03 06:46:11;;;;;;;10.40;1.90;;;;;;;10.72;99.30;101722.33;108045;1276;60452;-77
2022/10/03 06:49:11;;;;;;;9.00;2.40;;;;;;;10.77;98.95;101724.55;107728;1276;75167;-80
2022/10/03 06:51:54;;;;;;;13.10;2.50;;;;;;;10.80;98.58;101721.15;107820;1276;71645;-77
2022/10/03 06:54:39;;;;;;;7.80;2.00;;;;;;;10.81;98.20;101724.98;107362;1276;73078;-78
2022/10/03 06:57:15;;;;;;;12.40;2.30;;;;;;;10.87;98.27;101729.77;107906;1276;62487;-77
2022/10/03 07:02:42;;;;;;;10.60;2.50;;;;;;;11.04;97.83;101725.61;107955;1273;72930;-81
2022/10/03 07:05:35;;;;;;;9.10;2.10;;;;;;;11.11;97.45;101722.98;107396;1276;72139;-80
2022/10/03 07:08:14;;;;;;;11.30;2.10;;;;;;;11.14;97.11;101724.78;107837;1276;73186;-82
2022/10/03 07:11:04;;;;;;;9.10;2.00;;;;;;;11.22;96.85;101726.27;107530;1276;59965;-82
2022/10/03 07:14:09;;;;;;;10.60;2.30;;;;;;;11.27;96.88;101729.52;107767;1277;60050;-82
2022/10/03 07:17:15;;;;;;;11.80;2.10;;;;;;;11.31;96.25;101729.20;107335;1277;75738;-79
2022/10/03 07:20:20;;;;;;;8.40;2.20;;;;;;;11.37;96.26;101730.58;107880;1277;72792;-81
2022/10/03 07:26:00;;;;;;;9.20;2.40;;;;;;;11.55;95.47;101736.77;107775;1267;60749;-81
2022/10/03 07:28:39;;;;;;;8.30;2.10;;;;;;;11.65;95.11;101738.70;107694;1276;60051;-81
2022/10/03 07:31:37;;;;;;;12.20;2.60;;;;;;;11.84;94.86;101735.40;107852;1275;72692;-81
2022/10/03 07:34:32;;;;;;;10.20;1.90;;;;;;;12.02;94.14;101738.14;107609;1276;70401;-82
2022/10/03 07:40:33;;;;;;;9.30;1.70;;;;;;;12.04;92.19;101740.10;107697;1268;63450;-81
2022/10/03 07:43:55;;;;;;;8.40;1.80;;;;;;;11.99;92.03;101745.91;107261;1279;60983;-83
2022/10/03 07:46:56;;;;;;;10.80;2.00;;;;;;;12.07;92.69;101746.58;107063;1279;75211;-84
2022/10/03 07:49:39;;;;;;;10.10;1.80;;;;;;;12.13;92.70;101756.88;107690;1268;71273;-81
2022/10/03 07:52:24;;;;;;;12.30;2.60;;;;;;;12.15;92.42;101755.42;107457;1277;72922;-80
2022/10/03 07:55:04;;;;;;;12.50;1.90;;;;;;;12.12;91.98;101747.83;107715;1277;62422;-81
2022/10/03 08:00:23;;;;;;;11.20;2.20;;;;;;;12.25;92.21;101749.95;107535;1267;74907;-82
2022/10/03 08:03:08;;;;;;;7.90;1.70;;;;;;;12.36;91.81;101751.65;107766;1270;73766;-81
2022/10/03 08:06:17;;;;;;;9.60;2.00;;;;;;;12.47;91.57;101753.75;107536;1276;73462;-80
2022/10/03 08:09:02;;;;;;;7.50;1.70;;;;;;;12.66;91.52;101755.67;107829;1270;61338;-80
2022/10/03 08:11:43;;;;;;;11.80;2.10;;;;;;;12.77;90.72;101757.42;107417;1278;60406;-79
2022/10/03 08:14:26;;;;;;;10.60;1.90;;;;;;;12.91;90.13;101755.59;107712;1278;75250;-81
2022/10/03 08:16:56;;;;;;;10.60;2.50;;;;;;;13.07;90.34;101754.77;107399;1279;72749;-79
2022/10/03 08:19:28;;;;;;;10.30;2.10;;;;;;;13.19;89.31;101756.88;107806;1279;71515;-81
2022/10/03 08:22:33;;;;;;;8.40;1.70;;;;;;;13.31;88.93;101759.00;107267;1279;63548;-79
2022/10/03 08:25:24;;;;;;;9.10;2.00;;;;;;;13.39;87.69;101764.88;107422;1279;60440;-79
2022/10/03 08:28:16;;;;;;;10.50;2.30;;;;;;;13.50;87.80;101758.87;107469;1278;74663;-79
2022/10/03 08:31:19;;;;;;;8.70;2.10;;;;;;;13.61;86.94;101759.44;107445;1278;72901;-83
2022/10/03 08:33:58;;;;;;;8.60;2.20;;;;;;;13.70;86.47;101763.12;107585;1279;72961;-79
2022/10/03 08:37:02;;;;;;;10.00;2.00;;;;;;;13.77;85.82;101760.53;107656;1279;61916;-78
2022/10/03 08:39:32;;;;;;;12.00;2.20;;;;;;;13.83;85.45;101762.76;107230;1279;60469;-81
2022/10/03 08:42:43;;;;;;;7.00;1.60;;;;;;;13.92;85.27;101761.59;107593;1279;74625;-80
2022/10/03 08:45:43;;;;;;;7.60;1.90;;;;;;;14.04;84.43;101762.52;106876;1279;73536;-80
2022/10/03 08:48:13;;;;;;;12.00;1.70;;;;;;;14.19;84.20;101767.41;107326;1278;73761;-79
2022/10/03 08:50:54;;;;;;;10.10;1.90;;;;;;;14.26;82.82;101771.10;107393;1277;63134;-80
2022/10/03 08:53:56;;;;;;;9.50;2.00;;;;;;;14.36;82.89;101774.84;107560;1278;59412;-79
2022/10/03 08:56:55;;;;;;;8.60;2.00;;;;;;;14.44;81.47;101781.30;107460;1279;75214;-79
2022/10/03 08:59:46;;;;;;;7.50;1.90;;;;;;;14.60;81.89;101779.20;107123;1279;71331;-80
2022/10/03 09:02:25;;;;;;;9.20;1.70;;;;;;;14.78;81.25;101777.17;107320;1278;73029;-80
2022/10/03 09:05:07;;;;;;;11.30;1.90;;;;;;;14.88;80.25;101777.45;107300;1279;62089;-81
2022/10/03 09:07:48;;;;;;;8.20;1.60;;;;;;;14.99;79.85;101787.33;107582;1278;62743;-80
2022/10/03 09:10:33;;;;;;;8.80;1.70;;;;;;;14.98;78.48;101783.80;107458;1278;75097;-80
2022/10/03 09:13:13;;;;;;;8.00;1.60;;;;;;;15.02;78.72;101782.42;107481;1278;73349;-80
2022/10/03 09:15:40;;;;;;;8.90;1.90;;;;;;;15.05;78.04;101785.08;107487;1279;74287;-80
2022/10/03 09:18:39;;;;;;;7.60;1.70;;;;;;;15.14;77.77;101790.84;107808;1279;62117;-79
2022/10/03 09:21:22;;;;;;;9.00;1.70;;;;;;;15.24;76.71;101796.05;107108;1279;60380;-79
2022/10/03 09:24:30;;;;;;;9.00;1.40;;;;;;;15.36;76.32;101789.70;107335;1278;74905;-78
2022/10/03 09:27:26;;;;;;;11.20;1.90;;;;;;;15.46;75.79;101781.88;107367;1279;72316;-78
2022/10/03 09:30:13;;;;;;;9.20;1.80;;;;;;;15.72;75.35;101783.91;106794;1281;72880;-77
2022/10/03 09:33:00;;;;;;;8.80;1.50;;;;;;;15.89;73.93;101784.02;107289;1279;61990;-78
2022/10/03 09:35:30;;;;;;;8.10;1.50;;;;;;;16.02;72.99;101784.95;107518;1279;60581;-76
2022/10/03 09:38:14;;;;;;;9.20;1.70;;;;;;;16.09;72.14;101785.71;107312;1279;74372;-76
2022/10/03 09:41:19;;;;;;;6.20;1.40;;;;;;;16.24;72.79;101784.93;107143;1279;70158;-76
2022/10/03 09:44:01;;;;;;;6.00;1.80;;;;;;;16.44;72.14;101789.38;107019;1279;72779;-78
2022/10/03 09:47:22;;;;;;;7.80;1.50;;;;;;;16.45;70.74;101787.67;106870;1279;61975;-77
2022/10/03 09:49:52;;;;;;;5.60;1.20;;;;;;;16.32;70.95;101787.83;106504;1278;61346;-79
2022/10/03 09:53:01;;;;;;;6.70;1.30;;;;;;;16.26;71.28;101792.24;106504;1279;74897;-78
2022/10/03 09:55:42;;;;;;;6.80;1.30;;;;;;;16.19;71.71;101796.64;106337;1279;71628;-78
2022/10/03 09:58:15;;;;;;;7.80;1.60;;;;;;;16.14;71.63;101788.30;106840;1279;74147;-78
2022/10/03 10:00:56;;;;;;;10.50;1.70;;;;;;;16.12;71.81;101794.45;106889;1279;62580;-77
2022/10/03 10:03:44;;;;;;;10.80;1.80;;;;;;;16.15;72.16;101796.59;106425;1280;60487;-77
2022/10/03 10:06:33;;;;;;;8.30;1.40;;;;;;;16.09;71.85;101806.39;106833;1279;73842;-77
2022/10/03 10:09:34;;;;;;;8.60;1.70;;;;;;;16.13;72.39;101798.98;107057;1279;71069;-77
2022/10/03 10:12:09;;;;;;;8.20;1.80;;;;;;;16.08;71.94;101796.20;107007;1279;72876;-77
2022/10/03 10:14:52;;;;;;;9.20;1.50;;;;;;;16.12;71.86;101797.90;107012;1281;62183;-77
2022/10/03 10:17:33;;;;;;;9.70;2.40;;;;;;;16.11;71.97;101796.20;106648;1279;61613;-77
2022/10/03 10:20:33;;;;;;;10.00;1.90;;;;;;;16.02;73.11;101802.45;107518;1276;74145;-77
2022/10/03 10:23:36;;;;;;;8.80;1.30;;;;;;;15.94;75.60;101799.09;106979;1279;71276;-80
2022/10/03 10:26:28;;;;;;;8.40;1.50;;;;;;;15.79;75.97;101786.60;106812;1279;73375;-77
2022/10/03 10:29:19;;;;;;;9.20;1.70;;;;;;;15.76;76.68;101781.04;106933;1279;62085;-77
2022/10/03 10:31:53;;;;;;;9.50;1.70;;;;;;;15.70;77.28;101785.37;107206;1279;60490;-79
2022/10/03 10:34:41;;;;;;;8.70;1.40;;;;;;;15.79;77.67;101784.13;107163;1277;75240;-77
2022/10/03 10:37:08;;;;;;;10.40;1.30;;;;;;;15.99;77.44;101782.14;107339;1278;71256;-77
2022/10/03 10:39:59;;;;;;;9.30;1.40;;;;;;;16.18;76.56;101783.86;106932;1279;72186;-78
2022/10/03 10:42:41;;;;;;;9.10;1.80;;;;;;;16.36;75.99;101783.52;106709;1279;61931;-77
2022/10/03 10:45:53;;;;;;;7.60;1.20;;;;;;;16.58;76.10;101777.44;107561;1279;60472;-77
2022/10/03 10:48:41;;;;;;;9.50;1.60;;;;;;;16.71;74.96;101781.89;107071;1279;74089;-78
2022/10/03 10:51:32;;;;;;;8.30;1.70;;;;;;;16.73;73.58;101779.55;107241;1279;71737;-78
2022/10/03 10:54:26;;;;;;;9.20;1.40;;;;;;;16.95;71.72;101774.54;106881;1279;72710;-77
2022/10/03 10:57:13;;;;;;;7.70;1.40;;;;;;;17.26;70.97;101776.39;107104;1279;61483;-78
2022/10/03 10:59:53;;;;;;;6.60;1.20;;;;;;;17.29;69.00;101774.91;107160;1279;60512;-78
2022/10/03 11:02:32;;;;;;;8.10;1.60;;;;;;;17.32;68.78;101773.11;107202;1278;73886;-77
2022/10/03 11:05:24;;;;;;;6.70;1.40;;;;;;;17.17;68.64;101780.20;106833;1279;70253;-78
2022/10/03 11:08:33;;;;;;;4.70;1.10;;;;;;;17.11;68.74;101774.03;107095;1279;72778;-78
2022/10/03 11:11:24;;;;;;;8.90;1.60;;;;;;;17.17;68.75;101773.80;107476;1279;62595;-79
2022/10/03 11:13:56;;;;;;;5.00;1.30;;;;;;;17.50;68.85;101767.77;106889;1279;60514;-77
2022/10/03 11:16:48;;;;;;;7.40;1.60;;;;;;;17.77;69.00;101770.52;107073;1279;75069;-82
2022/10/03 11:19:42;;;;;;;5.90;1.20;;;;;;;17.77;66.82;101768.50;107408;1279;70877;-78
2022/10/03 11:22:32;;;;;;;8.30;1.70;;;;;;;17.72;65.77;101765.08;106464;1278;73033;-78
2022/10/03 11:25:17;;;;;;;4.70;1.20;;;;;;;17.76;65.18;101757.68;107414;1279;62033;-78
2022/10/03 11:28:02;;;;;;;6.90;1.30;;;;;;;18.07;65.03;101754.45;106903;1279;60341;-78
2022/10/03 11:31:06;;;;;;;5.80;1.20;;;;;;;18.20;63.48;101751.42;107287;1279;74338;-80
2022/10/03 11:34:00;;;;;;;7.40;1.60;;;;;;;18.03;63.27;101752.70;106934;1279;71369;-77
2022/10/03 11:36:49;;;;;;;6.70;1.30;;;;;;;17.84;64.86;101754.90;107350;1279;71803;-81
2022/10/03 11:39:33;;;;;;;6.30;1.30;;;;;;;17.60;64.97;101765.27;106874;1279;61649;-79
2022/10/03 11:42:04;;;;;;;6.50;1.60;;;;;;;17.33;64.82;101760.69;107120;1279;61475;-78
2022/10/03 11:44:36;;;;;;;6.60;1.50;;;;;;;17.19;66.41;101764.23;107139;1279;74903;-80
2022/10/03 11:47:37;;;;;;;6.20;1.20;;;;;;;17.05;66.89;101766.15;106980;1279;71142;-78
2022/10/03 11:50:19;;;;;;;7.40;1.50;;;;;;;17.05;67.35;101767.04;107108;1279;71868;-79
2022/10/03 11:52:57;;;;;;;6.20;1.20;;;;;;;17.10;68.01;101770.72;107119;1279;62706;-79
2022/10/03 11:55:40;;;;;;;6.60;1.20;;;;;;;17.07;67.12;101770.41;107517;1279;61740;-78
2022/10/03 11:58:33;;;;;;;9.10;1.50;;;;;;;17.03;67.06;101771.98;106988;1280;74299;-78
2022/10/03 12:01:24;;;;;;;6.00;1.50;;;;;;;16.92;67.21;101767.08;107069;1279;72086;-78
2022/10/03 12:04:19;;;;;;;6.90;1.30;;;;;;;16.76;66.30;101772.38;107237;1279;73793;-79
2022/10/03 12:09:58;;;;;;;7.10;1.30;;;;;;;16.59;69.19;101763.12;107264;1279;61385;-77
2022/10/03 12:12:42;;;;;;;8.30;1.70;;;;;;;16.57;69.75;101765.77;106899;1279;75234;-78
2022/10/03 12:15:30;;;;;;;6.60;1.60;;;;;;;16.61;70.00;101764.59;107205;1279;71477;-76
2022/10/03 12:18:04;;;;;;;6.50;1.40;;;;;;;16.62;69.27;101763.89;106960;1278;73630;-75
2022/10/03 12:20:57;;;;;;;4.70;1.40;;;;;;;16.59;69.00;101762.90;107395;1279;62732;-77
2022/10/03 12:23:43;;;;;;;6.40;1.20;;;;;;;16.53;68.41;101760.90;107076;1279;60877;-79
2022/10/03 12:26:17;;;;;;;4.20;0.90;;;;;;;16.53;69.00;101765.55;107282;1278;73868;-76
2022/10/03 12:28:51;;;;;;;6.00;1.10;;;;;;;16.49;68.27;101765.15;107046;1281;72407;-77
2022/10/03 12:31:23;;;;;;;6.20;1.40;;;;;;;16.58;68.47;101761.95;107095;1279;74027;-76
2022/10/03 12:34:01;;;;;;;6.70;1.60;;;;;;;16.73;68.44;101761.03;106947;1279;62336;-77
2022/10/03 12:36:28;;;;;;;4.90;1.20;;;;;;;16.89;68.15;101757.29;107201;1279;61708;-78
2022/10/03 12:39:10;;;;;;;5.60;1.10;;;;;;;17.04;67.32;101756.73;107063;1279;59206;-82
2022/10/03 12:42:04;;;;;;;5.50;1.30;;;;;;;17.19;66.21;101754.73;107347;1279;71257;-80
2022/10/03 12:44:31;;;;;;;4.70;1.30;;;;;;;17.63;65.08;101752.59;107078;1279;73864;-81
2022/10/03 12:47:24;;;;;;;4.70;1.00;;;;;;;17.84;63.47;101749.20;107398;1279;59326;-80
2022/10/03 12:50:29;;;;;;;4.50;1.00;;;;;;;18.18;62.04;101744.44;107167;1281;63109;-81
2022/10/03 12:53:05;;;;;;;4.30;0.80;;;;;;;18.16;61.14;101747.03;107487;1279;73926;-81
2022/10/03 12:55:36;;;;;;;6.60;1.50;;;;;;;18.02;61.06;101748.93;106873;1279;71373;-80
2022/10/03 12:58:32;;;;;;;4.90;1.40;;;;;;;18.01;61.25;101748.10;107283;1279;74242;-81
2022/10/03 13:01:04;;;;;;;5.80;1.20;;;;;;;18.02;61.94;101741.74;107078;1279;60985;-81
2022/10/03 13:03:48;;;;;;;4.00;1.10;;;;;;;18.08;62.51;101746.66;107064;1281;60605;-81